Glen Gardner, NJ

3:22 PM EDT on May 05, 2015 (GMT -0400)
Berk Lane | | Change Station
CLOSE
Current Station
Personal Weather Station
Location: Glen Gardner, NJ
Elevation: 925 ft
Nearby Weather Stations

Elev 925 ft 40.71 °N, 74.90 °W | Updated 31 seconds ago

Partly Cloudy
Partly Cloudy
79.0 °F
Feels Like 79 °F
N
0.0
Wind Variable Wind from WSW
Gusts 0.0 mph

Today
High -- | Low -- °F
--% Chance of Precip.
Yesterday
High -- | Low -- °F
Precip. -- in
5:53 AM 7:59 PM
Full, 97% visible
Pressure 30.16 in
Visibility 10.0 miles
Clouds Scattered Clouds 7000 ft
Mostly Cloudy 8000 ft
Heat Index 79 °F
Dew Point 53 °F
Humidity 41%
Rainfall 0.00 in
Snow Depth Not available.
UV 2.0 out of 12
Pollen 9.20 out of 12
Air Quality Not available.
Flu Activity Local Activity
METAR KSMQ 051853Z AUTO 28003KT 10SM SCT070 BKN080 28/12 A3016 RMK AO2 SLP211 T02830117 TSNO

More Conditions Fewer Conditions

Pressure 30.16 in
Visibility 10.0 miles
Clouds Scattered Clouds 7000 ft
Mostly Cloudy 8000 ft
Heat Index 79 °F
Dew Point 53 °F
Humidity 41%
Rainfall 0.00 in
Snow Depth Not available.
UV 2.0 out of 12
Pollen 9.20 out of 12
Air Quality Not available.
Flu Activity Local Activity
METAR KSMQ 051853Z AUTO 28003KT 10SM SCT070 BKN080 28/12 A3016 RMK AO2 SLP211 T02830117 TSNO

More Conditions Fewer Conditions

Nowcast | as of 3:20 PM EDT on May 5, 2015

As of 315 PM, an area of showers continues to move eastward across portions of the Poconos and Lehigh Valley region. Some of the showers may weaken as they move farther eastward. The associated rainfall is anticipated to be rather light.

×

10-Day Weather Forecast

Almanac

Astronomy

May. 05, 2015 Rise Set
Actual Time
Civil Twilight
Nautical Twilight
Astronomical Twilight
Moon
Length of Visible Light
Length of Day
Tomorrow will be .
, % of the Moon is Illuminated

Today's Extremes

State Highs State Lows

Community

WunderPhotos

Upload Photos

1,818,957 photos uploaded!

WunderBlogs® & News

Nearby

Air Quality

  Air Quality AQ Index Pollutant
Not available.

Snow Depth

Station Depth Elevation

Earthquake Activity

City Distance Mag. Time & Date
Minimum magnitude displayed is 2.5.

Coastal Water Temperatures

Place Temperature

Stations

Nearby Weather Stations

Station Location Temp. Windchill Dew Point Humidity Wind Precip. Elev Updated Type